Time;durP1;ratioP1;P1;durP2;ratioP2;P2;SDS_P1;SDS_P2;PMS_P1;PMS_P2;Temp;Humidity;BMP_temperature;BMP_pressure;BME280_temperature;BME280_humidity;BME280_pressure;Samples;Min_cycle;Max_cycle;Signal;HPM_P1;HPM_P2
2023/10/03 00:05:35;;;;;;;12.20;5.90;;;;;;;11.17;100.00;99568.52;271558;1270;22602;-82
2023/10/03 00:12:39;;;;;;;13.10;6.60;;;;;;;11.07;100.00;99561.23;270424;1269;22586;-82
2023/10/03 00:19:01;;;;;;;11.20;5.60;;;;;;;10.99;100.00;99562.09;273191;1272;22578;-82
2023/10/03 00:25:04;;;;;;;11.50;5.70;;;;;;;10.97;100.00;99553.77;271683;1266;22610;-82
2023/10/03 00:31:09;;;;;;;7.90;5.00;;;;;;;10.98;100.00;99557.31;270569;1269;23096;-83
2023/10/03 00:37:11;;;;;;;8.50;5.20;;;;;;;10.99;100.00;99558.43;271063;1269;22547;-82
2023/10/03 00:43:17;;;;;;;10.60;5.80;;;;;;;10.98;100.00;99555.75;270177;1269;22564;-82
2023/10/03 00:49:20;;;;;;;;;;;;;;;11.00;100.00;99541.14;271790;1269;22503;-82
2023/10/03 01:03:28;;;;;;;8.50;4.70;;;;;;;11.06;100.00;99513.16;273315;1270;22522;-83
2023/10/03 01:09:50;;;;;;;12.60;4.50;;;;;;;11.06;100.00;99494.67;273885;1270;23250;-82
2023/10/03 01:15:53;;;;;;;12.70;4.60;;;;;;;11.03;100.00;99488.44;273883;1272;22401;-83
2023/10/03 01:22:16;;;;;;;10.30;5.00;;;;;;;10.99;100.00;99488.38;273951;1269;22547;-82
2023/10/03 01:36:04;;;;;;;10.00;5.10;;;;;;;10.87;100.00;99485.82;273831;1270;22963;-83
2023/10/03 01:42:47;;;;;;;9.50;5.80;;;;;;;10.86;100.00;99484.63;273825;1269;22829;-83
2023/10/03 01:49:09;;;;;;;10.50;5.90;;;;;;;10.91;100.00;99479.00;273759;1269;22227;-83
2023/10/03 01:55:57;;;;;;;7.00;4.50;;;;;;;10.94;100.00;99475.05;273644;1270;22914;-83
2023/10/03 02:02:34;;;;;;;8.70;5.10;;;;;;;10.94;100.00;99473.98;273779;1271;22295;-82
2023/10/03 02:09:16;;;;;;;7.60;5.10;;;;;;;10.90;100.00;99474.30;273913;1273;22171;-82
2023/10/03 02:16:10;;;;;;;9.00;5.20;;;;;;;10.83;100.00;99463.14;273700;1271;22154;-83
2023/10/03 02:23:17;;;;;;;8.60;5.60;;;;;;;10.81;100.00;99458.02;273802;1276;22196;-82
2023/10/03 02:30:36;;;;;;;8.70;4.90;;;;;;;10.83;100.00;99454.84;273639;1269;22172;-83
2023/10/03 02:36:38;;;;;;;8.40;5.20;;;;;;;10.84;100.00;99449.70;273795;1270;22309;-83
2023/10/03 02:43:01;;;;;;;9.20;4.90;;;;;;;10.84;100.00;99446.65;273607;1271;22640;-83
2023/10/03 02:49:24;;;;;;;9.00;5.80;;;;;;;10.84;100.00;99439.84;273522;1272;22299;-83
2023/10/03 02:55:51;;;;;;;7.90;5.30;;;;;;;10.83;100.00;99432.08;273617;1270;22192;-83
2023/10/03 03:01:53;;;;;;;9.20;4.50;;;;;;;10.85;100.00;99423.50;273701;1269;22260;-83
2023/10/03 03:08:38;;;;;;;7.70;4.60;;;;;;;10.84;100.00;99422.05;273633;1272;22232;-83
2023/10/03 03:14:40;;;;;;;7.40;4.70;;;;;;;10.80;100.00;99417.84;273844;1269;22277;-83
2023/10/03 03:21:04;;;;;;;15.50;5.60;;;;;;;10.73;100.00;99415.38;273352;1270;22258;-83
2023/10/03 03:27:12;;;;;;;10.20;4.90;;;;;;;10.70;100.00;99416.59;273776;1260;22364;-83
2023/10/03 03:33:32;;;;;;;9.80;4.00;;;;;;;10.66;100.00;99413.71;273999;1269;22266;-83
2023/10/03 03:39:33;;;;;;;9.10;4.60;;;;;;;10.60;100.00;99415.16;272950;1265;22587;-83
2023/10/03 03:46:17;;;;;;;13.30;4.70;;;;;;;10.52;100.00;99412.73;273024;1269;22284;-83
2023/10/03 03:53:24;;;;;;;9.80;5.40;;;;;;;10.47;100.00;99411.71;273698;1269;22381;-83
2023/10/03 04:00:22;;;;;;;8.90;4.80;;;;;;;10.42;100.00;99409.05;273796;1269;23255;-83
2023/10/03 04:07:06;;;;;;;11.60;4.70;;;;;;;10.37;100.00;99401.46;273740;1269;22174;-83
2023/10/03 04:13:56;;;;;;;7.00;5.00;;;;;;;10.33;100.00;99387.77;273969;1272;22178;-83
2023/10/03 04:27:04;;;;;;;9.50;4.40;;;;;;;10.29;100.00;99389.41;271864;1269;22160;-83
2023/10/03 04:33:07;;;;;;;7.20;4.40;;;;;;;10.28;100.00;99389.09;273648;1269;23543;-83
2023/10/03 04:40:06;;;;;;;6.70;4.00;;;;;;;10.30;100.00;99386.31;273858;1272;22336;-83
2023/10/03 04:46:44;;;;;;;7.60;4.30;;;;;;;10.26;100.00;99379.59;273745;1270;22209;-83
2023/10/03 04:53:07;;;;;;;7.70;4.50;;;;;;;10.22;100.00;99379.05;273871;1269;22256;-83
2023/10/03 04:59:09;;;;;;;7.90;4.90;;;;;;;10.16;100.00;99374.80;273503;1269;22159;-83
2023/10/03 05:05:42;;;;;;;9.50;4.90;;;;;;;10.10;100.00;99367.88;273684;1272;22220;-83
2023/10/03 05:11:50;;;;;;;8.10;4.10;;;;;;;10.04;100.00;99366.56;271874;1269;22527;-84
2023/10/03 05:18:42;;;;;;;9.50;4.00;;;;;;;10.03;100.00;99358.65;272588;1270;22553;-83
2023/10/03 05:24:49;;;;;;;9.80;4.90;;;;;;;10.09;100.00;99360.04;271652;1267;22588;-83
2023/10/03 05:31:15;;;;;;;9.80;4.80;;;;;;;10.20;100.00;99355.08;269538;1269;22580;-83
2023/10/03 05:37:19;;;;;;;18.00;5.90;;;;;;;10.27;100.00;99353.11;270308;1263;22393;-83
2023/10/03 05:43:22;;;;;;;11.50;5.10;;;;;;;10.41;100.00;99353.59;273702;1270;22175;-83
2023/10/03 05:49:26;;;;;;;9.90;4.70;;;;;;;10.63;100.00;99349.82;273772;1269;23906;-83
2023/10/03 05:55:29;;;;;;;14.40;5.60;;;;;;;10.91;100.00;99351.38;272940;1269;22297;-83
2023/10/03 06:01:31;;;;;;;11.30;6.10;;;;;;;11.27;100.00;99354.16;271000;1269;22669;-84
2023/10/03 06:07:33;;;;;;;8.90;5.40;;;;;;;11.76;100.00;99352.95;271102;1270;22551;-84
2023/10/03 06:13:57;;;;;;;13.50;6.20;;;;;;;12.38;100.00;99353.06;271474;1263;22500;-84
2023/10/03 06:20:13;;;;;;;10.40;5.10;;;;;;;12.89;100.00;99354.06;272509;1269;22396;-84
2023/10/03 06:26:36;;;;;;;12.00;5.20;;;;;;;13.21;100.00;99356.66;273784;1269;22212;-84
2023/10/03 06:32:38;;;;;;;11.50;5.50;;;;;;;13.30;100.00;99357.98;273947;1269;22590;-84
2023/10/03 06:39:23;;;;;;;13.80;6.00;;;;;;;13.45;100.00;99355.77;274033;1272;22197;-84
2023/10/03 06:46:00;;;;;;;15.10;6.00;;;;;;;13.66;100.00;99355.48;273610;1269;23680;-85
2023/10/03 06:52:10;;;;;;;12.00;6.20;;;;;;;13.80;100.00;99353.81;273733;1269;22179;-84
2023/10/03 06:58:12;;;;;;;18.70;7.70;;;;;;;13.97;100.00;99352.08;273399;1269;22507;-84
2023/10/03 07:04:55;;;;;;;9.50;6.10;;;;;;;14.22;100.00;99342.47;273616;1269;23343;-84
2023/10/03 07:10:57;;;;;;;17.70;5.30;;;;;;;14.52;100.00;99339.39;270211;1269;25446;-84
2023/10/03 07:16:59;;;;;;;21.10;6.10;;;;;;;14.72;100.00;99338.29;270230;1269;22571;-84
2023/10/03 07:23:02;;;;;;;9.20;5.20;;;;;;;14.93;100.00;99338.67;270566;1269;22580;-83
2023/10/03 07:29:20;;;;;;;10.80;5.30;;;;;;;15.27;100.00;99339.98;271350;1269;22555;-84
2023/10/03 07:35:23;;;;;;;17.00;4.80;;;;;;;15.68;100.00;99331.65;270958;1269;23533;-84
2023/10/03 07:41:25;;;;;;;12.40;5.10;;;;;;;16.18;100.00;99327.23;273610;1269;22217;-84
2023/10/03 07:47:27;;;;;;;11.60;4.80;;;;;;;16.67;100.00;99319.64;272610;1264;22486;-84
2023/10/03 07:53:29;;;;;;;12.50;4.70;;;;;;;17.20;100.00;99319.39;270876;1269;22546;-83
2023/10/03 07:59:53;;;;;;;11.10;4.60;;;;;;;17.64;100.00;99320.56;272901;1269;22260;-83
2023/10/03 08:06:15;;;;;;;15.30;4.90;;;;;;;18.04;100.00;99315.23;271030;1265;22198;-84
2023/10/03 08:12:59;;;;;;;10.80;4.50;;;;;;;18.40;100.00;99302.20;271845;1269;22394;-83
2023/10/03 08:19:02;;;;;;;7.40;4.50;;;;;;;18.79;100.00;99287.48;273153;1269;22840;-84
2023/10/03 08:25:05;;;;;;;8.70;4.10;;;;;;;19.18;100.00;99276.38;273579;1269;22181;-83
2023/10/03 08:31:08;;;;;;;13.40;4.60;;;;;;;19.76;100.00;99274.35;273944;1269;22862;-84
2023/10/03 08:37:21;;;;;;;8.90;3.90;;;;;;;20.59;100.00;99264.16;273572;1269;22205;-83
2023/10/03 08:43:58;;;;;;;8.10;4.60;;;;;;;21.73;100.00;99251.02;273939;1269;22186;-81
2023/10/03 08:50:33;;;;;;;4.60;3.10;;;;;;;22.93;100.00;99241.63;273842;1272;22667;-81
2023/10/03 08:56:59;;;;;;;4.40;2.70;;;;;;;24.11;100.00;99234.83;273843;1269;22391;-81
2023/10/03 09:03:48;;;;;;;6.20;3.20;;;;;;;24.97;100.00;99231.52;274052;1269;22278;-83
2023/10/03 09:10:08;;;;;;;5.50;3.10;;;;;;;25.85;99.75;99233.94;273886;1259;23333;-82
2023/10/03 09:31:10;;;;;;;4.20;2.70;;;;;;;27.18;88.24;99206.52;274070;1275;22291;-82
2023/10/03 09:38:09;;;;;;;7.70;3.70;;;;;;;27.89;84.94;99204.95;273900;1269;22900;-83
2023/10/03 09:44:51;;;;;;;6.00;2.80;;;;;;;28.19;79.95;99198.96;273665;1273;22418;-83
2023/10/03 09:51:05;;;;;;;6.50;3.30;;;;;;;28.35;76.25;99187.98;273846;1269;22940;-83
2023/10/03 09:57:51;;;;;;;5.50;2.90;;;;;;;28.72;73.60;99181.95;273746;1273;22187;-84
2023/10/03 10:04:20;;;;;;;4.30;2.60;;;;;;;28.83;67.32;99176.67;273907;1269;22209;-84
2023/10/03 10:10:22;;;;;;;11.10;4.00;;;;;;;29.09;65.80;99166.89;274012;1269;22216;-82
2023/10/03 10:17:02;;;;;;;5.40;3.10;;;;;;;29.89;65.74;99159.67;273847;1269;22391;-83
2023/10/03 10:23:46;;;;;;;4.30;2.90;;;;;;;30.16;63.81;99157.22;273984;1269;23317;-84
2023/10/03 10:30:00;;;;;;;6.50;3.10;;;;;;;30.46;62.56;99150.83;273689;1269;22203;-83
2023/10/03 10:36:52;;;;;;;5.00;3.20;;;;;;;30.58;61.41;99146.01;273789;1269;22088;-83
2023/10/03 10:43:29;;;;;;;5.30;3.20;;;;;;;30.56;59.92;99134.34;272016;1262;24222;-84
2023/10/03 10:49:33;;;;;;;5.80;3.00;;;;;;;30.22;59.08;99130.14;271683;1269;23650;-84
2023/10/03 10:55:58;;;;;;;7.90;3.50;;;;;;;29.90;58.06;99122.08;270659;1266;22512;-83
2023/10/03 11:02:06;;;;;;;5.10;3.00;;;;;;;29.44;56.72;99111.79;271200;1266;23195;-83
2023/10/03 11:08:08;;;;;;;5.70;3.50;;;;;;;29.12;56.62;99102.66;270517;1267;22533;-83
2023/10/03 11:14:10;;;;;;;10.90;5.10;;;;;;;28.72;55.60;99095.52;270203;1269;23004;-83
2023/10/03 11:20:12;;;;;;;8.60;4.00;;;;;;;28.34;55.74;99090.27;270126;1267;23869;-82
2023/10/03 11:26:14;;;;;;;7.80;4.20;;;;;;;28.11;56.03;99086.63;270307;1264;23513;-84
2023/10/03 11:32:29;;;;;;;9.70;4.40;;;;;;;27.75;55.32;99081.69;270175;1269;22527;-83
2023/10/03 11:38:31;;;;;;;7.50;4.40;;;;;;;27.52;54.33;99073.45;272647;1269;22431;-82
2023/10/03 11:44:33;;;;;;;6.90;3.90;;;;;;;27.41;54.76;99063.16;273525;1263;22170;-83
2023/10/03 11:50:39;;;;;;;9.00;4.20;;;;;;;27.20;55.26;99052.21;273724;1268;22866;-84
2023/10/03 11:57:13;;;;;;;7.50;4.20;;;;;;;26.90;55.46;99047.52;273992;1269;22392;-83
2023/10/03 12:03:15;;;;;;;8.40;4.70;;;;;;;26.69;56.00;99036.83;268825;1262;6203780;-83
2023/10/03 12:09:20;;;;;;;8.60;5.00;;;;;;;26.42;56.59;99029.64;273986;1270;22915;-82
2023/10/03 12:15:31;;;;;;;10.00;4.80;;;;;;;26.25;56.06;99019.42;274030;1275;22165;-82
2023/10/03 12:21:39;;;;;;;9.40;4.90;;;;;;;26.25;56.58;99006.36;273794;1269;22126;-84
2023/10/03 12:27:43;;;;;;;8.60;4.40;;;;;;;26.18;57.02;98999.44;273816;1275;22181;-83
2023/10/03 12:33:45;;;;;;;8.30;4.70;;;;;;;25.97;57.92;98995.67;273830;1269;22449;-83
2023/10/03 12:40:13;;;;;;;7.90;4.50;;;;;;;25.75;58.24;98998.75;273968;1269;23245;-83
2023/10/03 12:46:18;;;;;;;12.40;5.30;;;;;;;25.62;58.87;98997.48;273744;1269;22473;-82
2023/10/03 12:52:20;;;;;;;8.40;4.80;;;;;;;25.48;59.25;98991.27;270792;1269;22520;-82
2023/10/03 12:58:24;;;;;;;7.40;4.20;;;;;;;25.38;59.97;98978.55;270129;1269;22523;-82
2023/10/03 13:04:32;;;;;;;11.80;5.00;;;;;;;25.27;60.45;98968.77;270054;1269;24213;-82
2023/10/03 13:11:01;;;;;;;8.60;5.30;;;;;;;25.16;60.88;98963.48;270008;1269;22523;-82
2023/10/03 13:17:04;;;;;;;8.20;4.90;;;;;;;25.04;60.78;98957.18;270919;1266;23135;-83
2023/10/03 13:23:07;;;;;;;9.60;4.90;;;;;;;25.03;60.62;98956.59;272358;1269;25430;-83
2023/10/03 13:29:51;;;;;;;10.50;5.30;;;;;;;24.97;61.37;98958.64;270592;1269;25148;-82
2023/10/03 13:35:54;;;;;;;9.90;4.80;;;;;;;24.84;61.82;98952.30;271755;1269;22542;-82
2023/10/03 13:42:16;;;;;;;9.00;5.00;;;;;;;24.83;61.68;98950.46;273716;1270;22267;-84
2023/10/03 13:48:39;;;;;;;9.80;5.60;;;;;;;24.88;61.66;98945.66;273806;1269;22184;-83
2023/10/03 13:55:01;;;;;;;12.90;5.80;;;;;;;24.82;62.00;98947.49;273639;1269;23404;-82
2023/10/03 14:01:49;;;;;;;11.30;5.80;;;;;;;24.66;62.60;98942.48;273832;1269;22967;-83
2023/10/03 14:07:51;;;;;;;13.10;6.30;;;;;;;24.49;63.17;98936.91;273629;1269;23749;-83
2023/10/03 14:13:58;;;;;;;12.90;6.40;;;;;;;24.33;63.95;98936.72;273552;1269;22379;-83
2023/10/03 14:20:01;;;;;;;13.90;6.70;;;;;;;24.13;64.48;98931.92;273582;1269;23102;-83
2023/10/03 14:26:24;;;;;;;11.40;6.10;;;;;;;24.01;64.52;98933.29;272855;1269;23761;-83
2023/10/03 14:32:26;;;;;;;15.50;7.30;;;;;;;23.95;64.33;98929.61;271988;1269;22329;-84
2023/10/03 14:38:28;;;;;;;15.60;7.30;;;;;;;23.91;64.28;98933.70;273298;1269;22435;-84
2023/10/03 14:44:30;;;;;;;14.50;7.90;;;;;;;23.80;64.88;98928.76;273381;1269;22153;-82
2023/10/03 14:51:01;;;;;;;16.20;8.70;;;;;;;23.68;64.73;98921.77;273866;1269;23331;-83
2023/10/03 14:57:05;;;;;;;15.10;7.40;;;;;;;23.64;64.90;98920.92;272942;1269;24158;-83
2023/10/03 15:03:07;;;;;;;15.90;7.90;;;;;;;23.55;65.34;98923.13;270972;1269;23455;-82
2023/10/03 15:09:09;;;;;;;14.30;7.50;;;;;;;23.48;65.69;98918.23;273629;1269;22230;-81
2023/10/03 15:15:16;;;;;;;14.30;8.10;;;;;;;23.36;66.36;98914.83;272933;1269;23061;-81
2023/10/03 15:21:18;;;;;;;15.00;8.10;;;;;;;23.21;67.01;98917.81;273266;1269;22197;-81
2023/10/03 15:27:26;;;;;;;19.30;9.80;;;;;;;23.02;68.06;98913.33;273641;1269;22189;-81
2023/10/03 15:33:30;;;;;;;18.30;9.00;;;;;;;22.75;68.61;98907.30;273598;1269;22372;-81
2023/10/03 15:39:32;;;;;;;19.80;9.50;;;;;;;22.44;69.24;98904.17;273401;1269;22882;-84
2023/10/03 15:46:00;;;;;;;21.90;10.30;;;;;;;22.23;70.59;98899.41;273618;1269;23125;-81
2023/10/03 15:52:03;;;;;;;20.00;9.60;;;;;;;22.01;71.96;98894.65;273570;1270;22617;-83
2023/10/03 15:58:06;;;;;;;16.90;8.90;;;;;;;21.88;73.30;98897.68;273864;1269;22289;-81
2023/10/03 16:04:08;;;;;;;17.20;8.00;;;;;;;21.66;73.89;98900.10;273651;1254;22445;-82
2023/10/03 16:10:38;;;;;;;14.80;7.40;;;;;;;21.41;74.09;98904.60;273629;1269;22383;-81
2023/10/03 16:16:46;;;;;;;15.90;7.00;;;;;;;21.19;74.41;98911.17;273444;1269;22679;-81
2023/10/03 16:23:16;;;;;;;13.60;7.00;;;;;;;20.95;74.90;98911.47;273985;1275;23198;-83
2023/10/03 16:29:49;;;;;;;15.70;7.40;;;;;;;20.76;75.55;98910.95;273452;1277;22844;-83
2023/10/03 16:36:11;;;;;;;15.10;7.40;;;;;;;20.52;75.96;98920.83;273721;1269;22373;-83
2023/10/03 16:42:13;;;;;;;17.90;7.80;;;;;;;20.17;76.32;98918.17;273776;1270;22384;-83
2023/10/03 16:48:16;;;;;;;17.50;7.70;;;;;;;19.90;77.29;98919.33;273904;1275;22177;-83
2023/10/03 16:54:19;;;;;;;17.00;8.00;;;;;;;19.75;78.41;98916.02;273538;1269;22396;-85
2023/10/03 17:00:45;;;;;;;17.00;8.00;;;;;;;19.54;78.73;98911.98;273626;1269;22198;-83
2023/10/03 17:06:51;;;;;;;14.30;7.30;;;;;;;19.30;79.63;98909.96;273688;1269;23145;-82
2023/10/03 17:13:34;;;;;;;15.60;7.70;;;;;;;19.12;80.26;98907.22;273627;1270;22296;-83
2023/10/03 17:19:35;;;;;;;18.30;8.50;;;;;;;18.91;80.86;98896.33;273745;1273;22412;-83
2023/10/03 17:25:44;;;;;;;18.40;8.40;;;;;;;18.70;81.99;98897.14;271593;1269;22514;-83
2023/10/03 17:31:48;;;;;;;15.90;8.60;;;;;;;18.47;82.43;98898.62;271647;1269;23330;-83
2023/10/03 17:37:52;;;;;;;16.20;8.00;;;;;;;18.32;82.85;98898.69;273635;1269;23166;-83
2023/10/03 17:44:19;;;;;;;15.70;8.60;;;;;;;18.17;83.81;98890.77;273733;1268;22203;-82
2023/10/03 17:50:47;;;;;;;18.40;7.90;;;;;;;17.94;85.13;98884.20;272998;1272;22230;-83
2023/10/03 17:56:50;;;;;;;14.50;7.40;;;;;;;17.65;85.60;98883.27;273145;1276;22337;-83
2023/10/03 18:02:56;;;;;;;15.50;7.50;;;;;;;17.38;86.53;98879.71;273246;1279;22271;-83
2023/10/03 18:09:16;;;;;;;19.00;8.70;;;;;;;17.23;87.11;98872.30;272842;1273;22181;-83
2023/10/03 18:15:18;;;;;;;16.40;8.10;;;;;;;17.08;87.76;98869.25;273019;1272;22267;-83
2023/10/03 18:21:29;;;;;;;13.70;6.90;;;;;;;16.93;88.70;98866.09;273536;1269;23190;-83
2023/10/03 18:28:49;;;;;;;13.50;7.40;;;;;;;16.79;89.60;98868.54;273543;1271;22323;-82
2023/10/03 18:34:51;;;;;;;14.50;7.00;;;;;;;16.62;89.79;98871.02;273135;1270;22396;-83
2023/10/03 18:40:53;;;;;;;18.40;6.80;;;;;;;16.42;90.23;98864.12;273192;1271;22347;-83
2023/10/03 18:47:22;;;;;;;17.00;8.60;;;;;;;16.21;90.49;98866.36;273301;1269;23438;-83
2023/10/03 18:53:24;;;;;;;19.20;7.90;;;;;;;16.01;91.41;98866.55;273318;1270;22336;-83
2023/10/03 18:59:27;;;;;;;13.70;7.50;;;;;;;15.92;91.84;98861.61;273698;1269;23147;-83
2023/10/03 19:05:29;;;;;;;14.90;7.30;;;;;;;15.86;92.51;98860.90;273781;1270;22213;-82
2023/10/03 19:12:11;;;;;;;17.70;7.90;;;;;;;15.75;92.81;98862.84;273742;1267;22334;-82
2023/10/03 19:19:01;;;;;;;12.50;6.80;;;;;;;15.61;93.52;98865.52;273912;1253;22185;-82
2023/10/03 19:25:05;;;;;;;20.50;8.40;;;;;;;15.51;94.08;98867.60;273770;1270;22280;-83
2023/10/03 19:31:11;;;;;;;15.90;7.20;;;;;;;15.38;94.41;98865.76;273728;1267;22165;-82
2023/10/03 19:37:17;;;;;;;19.20;8.40;;;;;;;15.24;94.94;98863.51;273642;1268;22340;-82
2023/10/03 19:51:06;;;;;;;12.90;7.20;;;;;;;15.03;96.14;98847.88;270998;1270;22554;-81
2023/10/03 19:57:08;;;;;;;14.00;6.50;;;;;;;14.94;96.47;98844.02;270746;1269;22500;-82
2023/10/03 20:03:09;;;;;;;20.00;8.60;;;;;;;14.91;97.06;98838.38;270976;1269;22929;-83
2023/10/03 20:10:01;;;;;;;18.80;7.60;;;;;;;14.98;97.74;98831.32;273691;1269;22193;-82
2023/10/03 20:17:04;;;;;;;14.20;6.70;;;;;;;15.11;98.87;98831.27;272832;1269;23349;-82
2023/10/03 20:23:44;;;;;;;13.20;7.10;;;;;;;15.28;99.67;98827.63;270945;1269;22550;-82
2023/10/03 20:29:46;;;;;;;12.20;6.80;;;;;;;15.43;99.85;98823.77;270763;1269;23323;-82
2023/10/03 20:36:12;;;;;;;15.30;7.10;;;;;;;15.56;99.76;98814.33;273815;1269;22212;-81
2023/10/03 20:42:14;;;;;;;11.90;6.30;;;;;;;15.72;99.77;98827.24;273615;1269;23519;-82
2023/10/03 20:48:16;;;;;;;16.10;6.90;;;;;;;15.85;99.65;98840.00;271613;1269;22563;-82
2023/10/03 20:54:40;;;;;;;13.80;6.10;;;;;;;15.97;99.66;98844.83;271403;1269;22535;-82
2023/10/03 21:00:42;;;;;;;12.00;5.90;;;;;;;16.04;99.42;98845.99;270260;1267;22303;-82
2023/10/03 21:07:24;;;;;;;12.20;6.00;;;;;;;16.16;99.13;98845.69;270733;1269;22508;-84
2023/10/03 21:13:26;;;;;;;13.50;5.40;;;;;;;16.23;99.74;98858.76;271543;1267;22196;-83
2023/10/03 21:19:29;;;;;;;10.90;6.00;;;;;;;16.22;99.88;98863.28;274000;1269;22982;-83
2023/10/03 21:25:34;;;;;;;10.80;6.60;;;;;;;16.17;99.89;98866.18;273251;1267;22279;-86
2023/10/03 21:31:35;;;;;;;11.40;5.80;;;;;;;16.13;99.85;98867.65;273730;1269;22527;-84
2023/10/03 21:37:56;;;;;;;13.10;5.70;;;;;;;16.18;99.67;98865.52;271598;1267;22401;-83
2023/10/03 21:44:01;;;;;;;9.80;4.60;;;;;;;16.51;99.39;98869.98;272618;1269;22384;-85
2023/10/03 21:50:04;;;;;;;11.00;5.40;;;;;;;16.96;98.65;98870.61;273691;1268;22470;-83
2023/10/03 21:56:30;;;;;;;9.90;4.60;;;;;;;17.56;97.15;98869.11;273164;1268;22553;-83
2023/10/03 22:02:33;;;;;;;11.80;5.40;;;;;;;17.98;95.62;98862.75;273794;1269;22242;-84
2023/10/03 22:09:15;;;;;;;9.40;4.60;;;;;;;18.15;94.84;98870.14;273757;1269;22181;-83
2023/10/03 22:15:17;;;;;;;9.60;4.50;;;;;;;18.28;94.07;98867.80;273646;1269;22245;-83
2023/10/03 22:21:20;;;;;;;6.70;3.60;;;;;;;18.33;93.42;98880.69;273879;1269;22388;-83
2023/10/03 22:27:22;;;;;;;9.10;4.60;;;;;;;18.24;93.03;98894.10;273766;1269;22262;-83
2023/10/03 22:33:51;;;;;;;7.80;4.10;;;;;;;18.26;92.87;98902.52;273969;1269;22475;-83
2023/10/03 22:40:10;;;;;;;10.00;4.10;;;;;;;18.35;92.54;98902.65;273718;1269;22225;-83
2023/10/03 22:47:00;;;;;;;9.50;4.40;;;;;;;18.49;92.31;98917.63;273936;1269;22221;-83
2023/10/03 22:53:02;;;;;;;8.90;4.40;;;;;;;18.45;92.57;98935.87;273624;1265;22540;-80
2023/10/03 22:59:06;;;;;;;9.40;4.60;;;;;;;18.23;92.96;98971.86;272849;1269;22563;-83
2023/10/03 23:05:08;;;;;;;10.20;4.70;;;;;;;18.16;93.36;98991.23;270729;1268;24222;-82
2023/10/03 23:11:11;;;;;;;9.40;4.60;;;;;;;18.23;93.96;99037.23;271664;1269;22440;-82
2023/10/03 23:17:34;;;;;;;10.60;5.70;;;;;;;18.16;94.68;99066.11;273850;1269;22258;-82
2023/10/03 23:23:36;;;;;;;11.80;5.70;;;;;;;18.01;95.42;99106.34;272365;1269;22568;-83
2023/10/03 23:29:38;;;;;;;17.40;6.60;;;;;;;17.82;96.68;99177.06;272432;1269;23350;-84
2023/10/03 23:35:42;;;;;;;9.40;4.50;;;;;;;17.47;97.91;99217.81;273761;1268;22847;-84
2023/10/03 23:41:44;;;;;;;9.50;3.40;;;;;;;17.03;99.51;99246.85;273650;1269;22275;-85
2023/10/03 23:48:06;;;;;;;10.30;3.70;;;;;;;16.74;100.00;99243.35;273995;1275;22279;-85
2023/10/03 23:54:10;;;;;;;8.40;3.60;;;;;;;16.62;100.00;99252.41;273592;1269;22383;-84
